sensor_id;sensor_type;location;lat;lon;timestamp;pressure;altitude;pressure_sealevel;temperature;humidity
17615;BME280;8926;49.720;6.576;2024-03-02T00:01:37;98259.38;;;10.03;59.48
17615;BME280;8926;49.720;6.576;2024-03-02T00:04:05;98257.13;;;9.98;59.72
17615;BME280;8926;49.720;6.576;2024-03-02T00:06:32;98264.97;;;9.98;59.97
17615;BME280;8926;49.720;6.576;2024-03-02T00:08:58;98258.31;;;9.94;59.31
17615;BME280;8926;49.720;6.576;2024-03-02T00:11:23;98248.22;;;9.90;59.75
17615;BME280;8926;49.720;6.576;2024-03-02T00:13:48;98254.28;;;9.90;59.96
17615;BME280;8926;49.720;6.576;2024-03-02T00:16:13;98267.78;;;9.95;59.31
17615;BME280;8926;49.720;6.576;2024-03-02T00:18:38;98254.03;;;9.93;59.32
17615;BME280;8926;49.720;6.576;2024-03-02T00:21:04;98255.94;;;9.91;59.35
17615;BME280;8926;49.720;6.576;2024-03-02T00:23:31;98263.16;;;9.87;60.28
17615;BME280;8926;49.720;6.576;2024-03-02T00:25:56;98266.16;;;9.83;59.84
17615;BME280;8926;49.720;6.576;2024-03-02T00:30:51;98252.88;;;9.75;60.09
17615;BME280;8926;49.720;6.576;2024-03-02T00:33:18;98256.31;;;9.75;59.89
17615;BME280;8926;49.720;6.576;2024-03-02T00:35:44;98250.38;;;9.73;59.93
17615;BME280;8926;49.720;6.576;2024-03-02T00:38:10;98253.22;;;9.70;60.25
17615;BME280;8926;49.720;6.576;2024-03-02T00:40:35;98265.06;;;9.63;60.20
17615;BME280;8926;49.720;6.576;2024-03-02T00:43:00;98267.66;;;9.63;60.38
17615;BME280;8926;49.720;6.576;2024-03-02T00:45:26;98261.88;;;9.60;61.00
17615;BME280;8926;49.720;6.576;2024-03-02T00:47:53;98269.59;;;9.61;60.12
17615;BME280;8926;49.720;6.576;2024-03-02T00:50:18;98264.94;;;9.65;59.92
17615;BME280;8926;49.720;6.576;2024-03-02T00:52:43;98265.66;;;9.67;60.25
17615;BME280;8926;49.720;6.576;2024-03-02T00:55:09;98261.88;;;9.71;60.49
17615;BME280;8926;49.720;6.576;2024-03-02T00:57:35;98255.59;;;9.73;59.52
17615;BME280;8926;49.720;6.576;2024-03-02T01:00:00;98256.66;;;9.71;59.71
17615;BME280;8926;49.720;6.576;2024-03-02T01:02:26;98265.31;;;9.71;60.48
17615;BME280;8926;49.720;6.576;2024-03-02T01:04:51;98258.81;;;9.77;59.87
17615;BME280;8926;49.720;6.576;2024-03-02T01:07:17;98262.47;;;9.74;59.66
17615;BME280;8926;49.720;6.576;2024-03-02T01:09:42;98253.59;;;9.77;59.54
17615;BME280;8926;49.720;6.576;2024-03-02T01:12:07;98250.03;;;9.78;59.35
17615;BME280;8926;49.720;6.576;2024-03-02T01:14:32;98253.34;;;9.80;59.93
17615;BME280;8926;49.720;6.576;2024-03-02T01:16:58;98255.13;;;9.79;59.81
17615;BME280;8926;49.720;6.576;2024-03-02T01:19:23;98239.47;;;9.79;59.55
17615;BME280;8926;49.720;6.576;2024-03-02T01:21:48;98255.00;;;9.81;59.14
17615;BME280;8926;49.720;6.576;2024-03-02T01:24:15;98245.53;;;9.80;59.82
17615;BME280;8926;49.720;6.576;2024-03-02T01:26:41;98251.47;;;9.82;59.30
17615;BME280;8926;49.720;6.576;2024-03-02T01:29:06;98255.59;;;9.84;59.04
17615;BME280;8926;49.720;6.576;2024-03-02T01:31:31;98249.31;;;9.87;59.44
17615;BME280;8926;49.720;6.576;2024-03-02T01:33:57;98256.19;;;9.88;59.18
17615;BME280;8926;49.720;6.576;2024-03-02T01:36:22;98257.28;;;9.85;59.44
17615;BME280;8926;49.720;6.576;2024-03-02T01:38:48;98245.06;;;9.86;59.48
17615;BME280;8926;49.720;6.576;2024-03-02T01:41:13;98254.78;;;9.84;59.64
17615;BME280;8926;49.720;6.576;2024-03-02T01:43:38;98247.66;;;9.86;59.88
17615;BME280;8926;49.720;6.576;2024-03-02T01:46:04;98252.63;;;9.89;59.11
17615;BME280;8926;49.720;6.576;2024-03-02T01:48:29;98249.78;;;9.92;59.09
17615;BME280;8926;49.720;6.576;2024-03-02T01:50:54;98242.66;;;9.94;59.03
17615;BME280;8926;49.720;6.576;2024-03-02T01:53:20;98243.59;;;9.93;59.20
17615;BME280;8926;49.720;6.576;2024-03-02T01:55:45;98245.75;;;9.88;59.30
17615;BME280;8926;49.720;6.576;2024-03-02T01:58:10;98254.53;;;9.87;58.78
17615;BME280;8926;49.720;6.576;2024-03-02T02:00:36;98252.06;;;9.85;59.16
17615;BME280;8926;49.720;6.576;2024-03-02T02:03:02;98250.97;;;9.88;59.09
17615;BME280;8926;49.720;6.576;2024-03-02T02:05:27;98249.31;;;9.87;59.25
17615;BME280;8926;49.720;6.576;2024-03-02T02:07:52;98254.28;;;9.90;59.31
17615;BME280;8926;49.720;6.576;2024-03-02T02:10:17;98255.69;;;9.94;58.84
17615;BME280;8926;49.720;6.576;2024-03-02T02:12:43;98255.94;;;9.91;59.02
17615;BME280;8926;49.720;6.576;2024-03-02T02:15:24;98264.00;;;9.88;59.44
17615;BME280;8926;49.720;6.576;2024-03-02T02:17:49;98254.41;;;9.88;59.35
17615;BME280;8926;49.720;6.576;2024-03-02T02:20:15;98255.34;;;9.87;59.61
17615;BME280;8926;49.720;6.576;2024-03-02T02:22:40;98255.94;;;9.91;59.50
17615;BME280;8926;49.720;6.576;2024-03-02T02:25:05;98253.22;;;9.93;59.62
17615;BME280;8926;49.720;6.576;2024-03-02T02:27:31;98254.03;;;9.93;59.46
17615;BME280;8926;49.720;6.576;2024-03-02T02:29:56;98254.03;;;9.93;59.61
17615;BME280;8926;49.720;6.576;2024-03-02T02:32:21;98251.56;;;9.92;59.89
17615;BME280;8926;49.720;6.576;2024-03-02T02:34:46;98246.34;;;9.92;60.08
17615;BME280;8926;49.720;6.576;2024-03-02T02:37:11;98257.59;;;9.92;60.07
17615;BME280;8926;49.720;6.576;2024-03-02T02:39:37;98249.06;;;9.90;60.01
17615;BME280;8926;49.720;6.576;2024-03-02T02:42:02;98250.97;;;9.88;60.44
17615;BME280;8926;49.720;6.576;2024-03-02T02:44:28;98240.28;;;9.91;60.35
17615;BME280;8926;49.720;6.576;2024-03-02T02:46:53;98240.28;;;9.91;60.53
17615;BME280;8926;49.720;6.576;2024-03-02T02:49:18;98239.34;;;9.92;60.63
17615;BME280;8926;49.720;6.576;2024-03-02T02:51:43;98242.19;;;9.89;60.68
17615;BME280;8926;49.720;6.576;2024-03-02T02:54:08;98246.56;;;9.88;61.10
17615;BME280;8926;49.720;6.576;2024-03-02T02:56:33;98245.75;;;9.88;60.66
17615;BME280;8926;49.720;6.576;2024-03-02T02:58:59;98249.06;;;9.90;60.82
17615;BME280;8926;49.720;6.576;2024-03-02T03:01:24;98237.81;;;9.90;60.81
17615;BME280;8926;49.720;6.576;2024-03-02T03:03:50;98241.75;;;9.84;60.55
17615;BME280;8926;49.720;6.576;2024-03-02T03:06:15;98243.97;;;9.77;61.05
17615;BME280;8926;49.720;6.576;2024-03-02T03:08:41;98235.81;;;9.82;61.17
17615;BME280;8926;49.720;6.576;2024-03-02T03:11:06;98242.69;;;9.83;60.85
17615;BME280;8926;49.720;6.576;2024-03-02T03:13:31;98243.16;;;9.77;60.82
17615;BME280;8926;49.720;6.576;2024-03-02T03:15:57;98243.88;;;9.79;61.61
17615;BME280;8926;49.720;6.576;2024-03-02T03:18:22;98240.66;;;9.75;61.69
17615;BME280;8926;49.720;6.576;2024-03-02T03:20:47;98248.38;;;9.77;61.76
17615;BME280;8926;49.720;6.576;2024-03-02T03:23:13;98247.88;;;9.72;62.29
17615;BME280;8926;49.720;6.576;2024-03-02T03:25:41;98243.84;;;9.68;62.69
17615;BME280;8926;49.720;6.576;2024-03-02T03:28:06;98244.91;;;9.65;63.04
17615;BME280;8926;49.720;6.576;2024-03-02T03:30:32;98242.81;;;9.59;63.09
17615;BME280;8926;49.720;6.576;2024-03-02T03:32:57;98254.53;;;9.53;63.61
17615;BME280;8926;49.720;6.576;2024-03-02T03:35:22;98256.78;;;9.58;63.84
17615;BME280;8926;49.720;6.576;2024-03-02T03:37:47;98253.81;;;9.51;64.09
17615;BME280;8926;49.720;6.576;2024-03-02T03:40:13;98263.63;;;9.48;64.18
17615;BME280;8926;49.720;6.576;2024-03-02T03:42:39;98254.28;;;9.45;64.29
17615;BME280;8926;49.720;6.576;2024-03-02T03:45:04;98260.91;;;9.49;64.04
17615;BME280;8926;49.720;6.576;2024-03-02T03:47:32;98263.75;;;9.46;64.92
17615;BME280;8926;49.720;6.576;2024-03-02T03:49:58;98269.69;;;9.48;64.06
17615;BME280;8926;49.720;6.576;2024-03-02T03:52:23;98261.59;;;9.40;64.66
17615;BME280;8926;49.720;6.576;2024-03-02T03:54:48;98256.63;;;9.37;64.72
17615;BME280;8926;49.720;6.576;2024-03-02T03:57:14;98259.72;;;9.42;64.53
17615;BME280;8926;49.720;6.576;2024-03-02T03:59:39;98261.00;;;9.37;64.51
17615;BME280;8926;49.720;6.576;2024-03-02T04:02:04;98272.25;;;9.37;64.73
17615;BME280;8926;49.720;6.576;2024-03-02T04:04:29;98272.25;;;9.37;65.05
17615;BME280;8926;49.720;6.576;2024-03-02T04:06:55;98277.13;;;9.31;65.62
17615;BME280;8926;49.720;6.576;2024-03-02T04:09:20;98281.50;;;9.30;65.08
17615;BME280;8926;49.720;6.576;2024-03-02T04:11:45;98288.50;;;9.30;65.07
17615;BME280;8926;49.720;6.576;2024-03-02T04:14:11;98286.34;;;9.24;65.86
17615;BME280;8926;49.720;6.576;2024-03-02T04:16:37;98279.34;;;9.24;65.86
17615;BME280;8926;49.720;6.576;2024-03-02T04:19:02;98278.41;;;9.25;66.47
17615;BME280;8926;49.720;6.576;2024-03-02T04:21:28;98289.06;;;9.22;67.21
17615;BME280;8926;49.720;6.576;2024-03-02T04:23:54;98293.44;;;9.22;68.74
17615;BME280;8926;49.720;6.576;2024-03-02T04:26:22;98298.47;;;9.12;69.80
17615;BME280;8926;49.720;6.576;2024-03-02T04:28:48;98302.50;;;9.05;70.30
17615;BME280;8926;49.720;6.576;2024-03-02T04:31:14;98304.84;;;8.97;71.16
17615;BME280;8926;49.720;6.576;2024-03-02T04:33:39;98300.78;;;8.93;71.46
17615;BME280;8926;49.720;6.576;2024-03-02T04:36:05;98296.63;;;8.90;71.89
17615;BME280;8926;49.720;6.576;2024-03-02T04:38:30;98299.84;;;8.94;70.87
17615;BME280;8926;49.720;6.576;2024-03-02T04:40:57;98306.81;;;8.93;70.94
17615;BME280;8926;49.720;6.576;2024-03-02T04:43:22;98311.94;;;8.95;70.60
17615;BME280;8926;49.720;6.576;2024-03-02T04:45:47;98314.63;;;8.93;71.05
17615;BME280;8926;49.720;6.576;2024-03-02T04:48:12;98320.69;;;8.94;70.73
17615;BME280;8926;49.720;6.576;2024-03-02T04:50:38;98318.78;;;8.96;70.72
17615;BME280;8926;49.720;6.576;2024-03-02T04:53:04;98313.19;;;8.89;71.13
17615;BME280;8926;49.720;6.576;2024-03-02T04:55:29;98310.69;;;8.88;71.40
17615;BME280;8926;49.720;6.576;2024-03-02T04:57:54;98312.97;;;8.92;70.62
17615;BME280;8926;49.720;6.576;2024-03-02T05:00:22;98315.47;;;8.94;70.76
17615;BME280;8926;49.720;6.576;2024-03-02T05:02:47;98314.25;;;8.87;71.50
17615;BME280;8926;49.720;6.576;2024-03-02T05:05:13;98320.28;;;8.87;71.33
17615;BME280;8926;49.720;6.576;2024-03-02T05:07:40;98310.47;;;8.91;71.71
17615;BME280;8926;49.720;6.576;2024-03-02T05:10:07;98324.66;;;8.87;72.27
17615;BME280;8926;49.720;6.576;2024-03-02T05:12:32;98321.34;;;8.84;71.71
17615;BME280;8926;49.720;6.576;2024-03-02T05:15:00;98320.28;;;8.87;72.19
17615;BME280;8926;49.720;6.576;2024-03-02T05:17:26;98320.41;;;8.85;71.92
17615;BME280;8926;49.720;6.576;2024-03-02T05:19:51;98319.69;;;8.83;72.70
17615;BME280;8926;49.720;6.576;2024-03-02T05:22:16;98319.47;;;8.87;71.89
17615;BME280;8926;49.720;6.576;2024-03-02T05:24:41;98326.53;;;8.84;72.46
17615;BME280;8926;49.720;6.576;2024-03-02T05:27:06;98328.22;;;8.85;72.55
17615;BME280;8926;49.720;6.576;2024-03-02T05:29:32;98329.66;;;8.90;73.02
17615;BME280;8926;49.720;6.576;2024-03-02T05:31:57;98326.53;;;8.84;73.18
17615;BME280;8926;49.720;6.576;2024-03-02T05:34:22;98330.09;;;8.83;73.14
17615;BME280;8926;49.720;6.576;2024-03-02T05:36:48;98334.59;;;8.81;74.20
17615;BME280;8926;49.720;6.576;2024-03-02T05:39:13;98331.06;;;8.82;73.88
17615;BME280;8926;49.720;6.576;2024-03-02T05:41:38;98323.72;;;8.88;72.97
17615;BME280;8926;49.720;6.576;2024-03-02T05:44:04;98323.50;;;8.91;73.94
17615;BME280;8926;49.720;6.576;2024-03-02T05:46:29;98326.09;;;8.91;74.18
17615;BME280;8926;49.720;6.576;2024-03-02T05:48:54;98321.13;;;8.88;74.10
17615;BME280;8926;49.720;6.576;2024-03-02T05:51:19;98321.59;;;8.81;75.39
17615;BME280;8926;49.720;6.576;2024-03-02T05:53:45;98319.69;;;8.83;75.65
17615;BME280;8926;49.720;6.576;2024-03-02T05:56:10;98331.53;;;8.88;76.34
17615;BME280;8926;49.720;6.576;2024-03-02T05:58:37;98317.34;;;8.92;74.47
17615;BME280;8926;49.720;6.576;2024-03-02T06:01:20;98324.44;;;8.90;75.01
17615;BME280;8926;49.720;6.576;2024-03-02T06:03:47;98329.88;;;8.87;75.36
17615;BME280;8926;49.720;6.576;2024-03-02T06:06:12;98330.34;;;8.80;76.74
17615;BME280;8926;49.720;6.576;2024-03-02T06:08:38;98327.75;;;8.80;76.49
17615;BME280;8926;49.720;6.576;2024-03-02T06:11:03;98325.34;;;8.77;77.52
17615;BME280;8926;49.720;6.576;2024-03-02T06:13:28;98331.06;;;8.82;76.28
17615;BME280;8926;49.720;6.576;2024-03-02T06:15:53;98332.84;;;8.82;76.63
17615;BME280;8926;49.720;6.576;2024-03-02T06:18:18;98332.00;;;8.81;76.76
17615;BME280;8926;49.720;6.576;2024-03-02T06:20:44;98335.56;;;8.80;76.78
17615;BME280;8926;49.720;6.576;2024-03-02T06:23:09;98326.63;;;8.72;77.40
17615;BME280;8926;49.720;6.576;2024-03-02T06:25:34;98331.00;;;8.71;78.07
17615;BME280;8926;49.720;6.576;2024-03-02T06:27:59;98331.59;;;8.75;78.08
17615;BME280;8926;49.720;6.576;2024-03-02T06:30:25;98333.06;;;8.79;77.38
17615;BME280;8926;49.720;6.576;2024-03-02T06:32:50;98335.56;;;8.80;77.87
17615;BME280;8926;49.720;6.576;2024-03-02T06:35:15;98335.44;;;8.82;77.97
17615;BME280;8926;49.720;6.576;2024-03-02T06:37:40;98335.31;;;8.83;78.48
17615;BME280;8926;49.720;6.576;2024-03-02T06:40:06;98338.41;;;8.89;78.33
17615;BME280;8926;49.720;6.576;2024-03-02T06:42:32;98346.94;;;8.91;78.58
17615;BME280;8926;49.720;6.576;2024-03-02T06:44:58;98341.50;;;8.94;78.15
17615;BME280;8926;49.720;6.576;2024-03-02T06:47:23;98349.84;;;8.99;77.85
17615;BME280;8926;49.720;6.576;2024-03-02T06:49:48;98344.41;;;9.02;77.23
17615;BME280;8926;49.720;6.576;2024-03-02T06:52:13;98340.63;;;9.06;76.46
17615;BME280;8926;49.720;6.576;2024-03-02T06:54:39;98349.41;;;9.05;76.73
17615;BME280;8926;49.720;6.576;2024-03-02T06:57:04;98351.06;;;9.06;77.01
17615;BME280;8926;49.720;6.576;2024-03-02T06:59:29;98347.03;;;9.13;76.63
17615;BME280;8926;49.720;6.576;2024-03-02T07:01:54;98350.16;;;9.18;76.50
17615;BME280;8926;49.720;6.576;2024-03-02T07:04:19;98349.09;;;9.21;76.42
17615;BME280;8926;49.720;6.576;2024-03-02T07:06:45;98354.91;;;9.24;76.80
17615;BME280;8926;49.720;6.576;2024-03-02T07:09:10;98340.72;;;9.28;77.07
17615;BME280;8926;49.720;6.576;2024-03-02T07:11:36;98349.03;;;9.33;76.35
17615;BME280;8926;49.720;6.576;2024-03-02T07:14:01;98349.50;;;9.38;76.08
17615;BME280;8926;49.720;6.576;2024-03-02T07:16:26;98357.19;;;9.40;76.44
17615;BME280;8926;49.720;6.576;2024-03-02T07:18:55;98351.88;;;9.41;76.53
17615;BME280;8926;49.720;6.576;2024-03-02T07:21:21;98354.16;;;9.46;75.31
17615;BME280;8926;49.720;6.576;2024-03-02T07:23:50;98354.47;;;9.41;75.78
17615;BME280;8926;49.720;6.576;2024-03-02T07:26:15;98353.78;;;9.39;76.29
17615;BME280;8926;49.720;6.576;2024-03-02T07:28:41;98361.03;;;9.47;76.76
17615;BME280;8926;49.720;6.576;2024-03-02T07:31:07;98364.00;;;9.53;76.48
17615;BME280;8926;49.720;6.576;2024-03-02T07:33:32;98370.44;;;9.61;75.58
17615;BME280;8926;49.720;6.576;2024-03-02T07:35:57;98369.25;;;9.65;75.04
17615;BME280;8926;49.720;6.576;2024-03-02T07:38:24;98369.00;;;9.68;74.29
17615;BME280;8926;49.720;6.576;2024-03-02T07:40:50;98362.25;;;9.65;74.19
17615;BME280;8926;49.720;6.576;2024-03-02T07:43:21;98367.34;;;9.67;73.75
17615;BME280;8926;49.720;6.576;2024-03-02T07:45:46;98363.13;;;9.77;74.31
17615;BME280;8926;49.720;6.576;2024-03-02T07:48:12;98365.50;;;9.91;73.27
17615;BME280;8926;49.720;6.576;2024-03-02T07:50:37;98361.47;;;9.98;72.62
17615;BME280;8926;49.720;6.576;2024-03-02T07:53:04;98363.16;;;10.10;72.63
17615;BME280;8926;49.720;6.576;2024-03-02T07:55:29;98367.22;;;10.37;72.00
17615;BME280;8926;49.720;6.576;2024-03-02T07:57:55;98369.53;;;10.73;70.34
17615;BME280;8926;49.720;6.576;2024-03-02T08:00:20;98364.78;;;10.90;70.04
17615;BME280;8926;49.720;6.576;2024-03-02T08:02:46;98365.25;;;10.83;67.41
17615;BME280;8926;49.720;6.576;2024-03-02T08:05:11;98366.91;;;10.84;67.10
17615;BME280;8926;49.720;6.576;2024-03-02T08:07:36;98380.47;;;10.78;66.77
17615;BME280;8926;49.720;6.576;2024-03-02T08:10:02;98379.63;;;10.67;67.01
17615;BME280;8926;49.720;6.576;2024-03-02T08:12:27;98380.97;;;10.50;67.43
17615;BME280;8926;49.720;6.576;2024-03-02T08:14:52;98387.38;;;10.46;67.74
17615;BME280;8926;49.720;6.576;2024-03-02T08:17:17;98384.75;;;10.46;67.26
17615;BME280;8926;49.720;6.576;2024-03-02T08:19:43;98375.28;;;10.45;67.77
17615;BME280;8926;49.720;6.576;2024-03-02T08:22:09;98364.78;;;10.67;67.75
17615;BME280;8926;49.720;6.576;2024-03-02T08:24:34;98357.22;;;11.07;66.55
17615;BME280;8926;49.720;6.576;2024-03-02T08:27:00;98345.47;;;12.27;63.50
17615;BME280;8926;49.720;6.576;2024-03-02T08:29:26;98343.38;;;13.20;60.91
17615;BME280;8926;49.720;6.576;2024-03-02T08:31:51;98338.03;;;13.78;59.49
17615;BME280;8926;49.720;6.576;2024-03-02T08:34:16;98326.88;;;14.13;58.72
17615;BME280;8926;49.720;6.576;2024-03-02T08:36:41;98327.19;;;14.47;57.20
17615;BME280;8926;49.720;6.576;2024-03-02T08:39:07;98334.94;;;14.66;55.80
17615;BME280;8926;49.720;6.576;2024-03-02T08:41:40;98336.84;;;14.74;55.97
17615;BME280;8926;49.720;6.576;2024-03-02T08:44:05;98340.09;;;14.85;55.17
17615;BME280;8926;49.720;6.576;2024-03-02T08:46:31;98341.00;;;14.76;54.84
17615;BME280;8926;49.720;6.576;2024-03-02T08:48:56;98346.31;;;14.84;55.30
17615;BME280;8926;49.720;6.576;2024-03-02T08:51:22;98343.97;;;14.81;55.57
17615;BME280;8926;49.720;6.576;2024-03-02T08:53:47;98341.91;;;15.03;55.28
17615;BME280;8926;49.720;6.576;2024-03-02T08:56:12;98345.13;;;14.97;55.09
17615;BME280;8926;49.720;6.576;2024-03-02T08:58:38;98348.09;;;14.66;54.77
17615;BME280;8926;49.720;6.576;2024-03-02T09:01:03;98357.19;;;14.35;55.95
17615;BME280;8926;49.720;6.576;2024-03-02T09:03:28;98353.47;;;14.00;56.14
17615;BME280;8926;49.720;6.576;2024-03-02T09:05:53;98369.84;;;13.75;56.63
17615;BME280;8926;49.720;6.576;2024-03-02T09:08:19;98375.38;;;13.23;57.45
17615;BME280;8926;49.720;6.576;2024-03-02T09:10:44;98368.69;;;12.90;57.69
17615;BME280;8926;49.720;6.576;2024-03-02T09:13:09;98372.63;;;12.75;59.23
17615;BME280;8926;49.720;6.576;2024-03-02T09:15:34;98367.78;;;12.61;58.97
17615;BME280;8926;49.720;6.576;2024-03-02T09:18:02;98371.06;;;12.44;59.75
17615;BME280;8926;49.720;6.576;2024-03-02T09:20:28;98383.75;;;12.18;60.39
17615;BME280;8926;49.720;6.576;2024-03-02T09:22:53;98368.94;;;12.07;60.60
17615;BME280;8926;49.720;6.576;2024-03-02T09:25:18;98372.53;;;12.06;61.62
17615;BME280;8926;49.720;6.576;2024-03-02T09:27:43;98374.19;;;12.07;61.64
17615;BME280;8926;49.720;6.576;2024-03-02T09:30:08;98373.94;;;12.10;61.20
17615;BME280;8926;49.720;6.576;2024-03-02T09:32:36;98369.22;;;12.04;61.44
17615;BME280;8926;49.720;6.576;2024-03-02T09:35:01;98368.25;;;12.05;62.03
17615;BME280;8926;49.720;6.576;2024-03-02T09:37:26;98357.00;;;12.14;61.71
17615;BME280;8926;49.720;6.576;2024-03-02T09:39:52;98366.78;;;12.12;61.60
17615;BME280;8926;49.720;6.576;2024-03-02T09:42:17;98366.06;;;12.10;62.28
17615;BME280;8926;49.720;6.576;2024-03-02T09:44:42;98359.81;;;12.02;62.45
17615;BME280;8926;49.720;6.576;2024-03-02T09:47:08;98358.41;;;11.98;62.78
17615;BME280;8926;49.720;6.576;2024-03-02T09:49:33;98354.81;;;11.89;63.55
17615;BME280;8926;49.720;6.576;2024-03-02T09:51:59;98354.91;;;12.08;63.37
17615;BME280;8926;49.720;6.576;2024-03-02T09:54:25;98346.97;;;12.19;63.35
17615;BME280;8926;49.720;6.576;2024-03-02T09:56:50;98341.31;;;12.64;62.35
17615;BME280;8926;49.720;6.576;2024-03-02T09:59:16;98325.53;;;13.33;61.05
17615;BME280;8926;49.720;6.576;2024-03-02T10:02:17;98316.63;;;14.19;58.76
17615;BME280;8926;49.720;6.576;2024-03-02T10:04:35;98309.72;;;15.09;56.35
17615;BME280;8926;49.720;6.576;2024-03-02T10:09:36;98309.50;;;15.38;54.40
17615;BME280;8926;49.720;6.576;2024-03-02T10:12:03;98319.22;;;15.02;54.30
17615;BME280;8926;49.720;6.576;2024-03-02T10:14:29;98315.34;;;14.60;54.97
17615;BME280;8926;49.720;6.576;2024-03-02T10:16:54;98309.63;;;14.38;55.35
17615;BME280;8926;49.720;6.576;2024-03-02T10:19:26;98308.06;;;14.17;56.28
17615;BME280;8926;49.720;6.576;2024-03-02T10:21:52;98307.59;;;13.95;57.14
17615;BME280;8926;49.720;6.576;2024-03-02T10:24:18;98301.00;;;13.81;57.70
17615;BME280;8926;49.720;6.576;2024-03-02T10:26:43;98301.28;;;13.78;58.26
17615;BME280;8926;49.720;6.576;2024-03-02T10:29:12;98307.22;;;13.80;57.81
17615;BME280;8926;49.720;6.576;2024-03-02T10:31:38;98311.00;;;13.68;57.83
17615;BME280;8926;49.720;6.576;2024-03-02T10:34:03;98305.31;;;14.09;57.22
17615;BME280;8926;49.720;6.576;2024-03-02T10:36:29;98292.44;;;14.53;56.02
17615;BME280;8926;49.720;6.576;2024-03-02T10:38:56;98290.28;;;15.19;55.39
17615;BME280;8926;49.720;6.576;2024-03-02T10:41:24;98280.56;;;15.81;53.88
17615;BME280;8926;49.720;6.576;2024-03-02T10:43:54;98286.25;;;16.03;52.54
17615;BME280;8926;49.720;6.576;2024-03-02T10:46:24;98278.19;;;16.04;52.79
17615;BME280;8926;49.720;6.576;2024-03-02T10:48:51;98277.06;;;16.15;52.59
17615;BME280;8926;49.720;6.576;2024-03-02T10:51:17;98275.25;;;16.07;52.62
17615;BME280;8926;49.720;6.576;2024-03-02T10:53:42;98280.91;;;15.60;52.80
17615;BME280;8926;49.720;6.576;2024-03-02T10:56:07;98285.41;;;15.07;53.86
17615;BME280;8926;49.720;6.576;2024-03-02T10:58:34;98283.06;;;14.86;54.73
17615;BME280;8926;49.720;6.576;2024-03-02T11:01:04;98274.50;;;14.66;55.41
17615;BME280;8926;49.720;6.576;2024-03-02T11:03:31;98264.72;;;14.58;55.48
17615;BME280;8926;49.720;6.576;2024-03-02T11:05:58;98266.06;;;14.45;55.79
17615;BME280;8926;49.720;6.576;2024-03-02T11:08:24;98259.03;;;14.36;56.54
17615;BME280;8926;49.720;6.576;2024-03-02T11:10:52;98270.09;;;14.30;56.47
17615;BME280;8926;49.720;6.576;2024-03-02T11:13:22;98264.84;;;14.30;56.83
17615;BME280;8926;49.720;6.576;2024-03-02T11:15:50;98265.94;;;14.37;57.03
17615;BME280;8926;49.720;6.576;2024-03-02T11:18:17;98253.91;;;14.44;56.69
17615;BME280;8926;49.720;6.576;2024-03-02T11:20:43;98251.81;;;14.47;55.68
17615;BME280;8926;49.720;6.576;2024-03-02T11:23:08;98255.13;;;14.40;55.17
17615;BME280;8926;49.720;6.576;2024-03-02T11:25:34;98246.84;;;14.44;55.38
17615;BME280;8926;49.720;6.576;2024-03-02T11:28:00;98244.59;;;14.49;54.80
17615;BME280;8926;49.720;6.576;2024-03-02T11:33:00;98228.91;;;14.75;54.27
17615;BME280;8926;49.720;6.576;2024-03-02T11:35:26;98225.03;;;14.79;54.22
17615;BME280;8926;49.720;6.576;2024-03-02T11:37:51;98223.38;;;14.78;53.45
17615;BME280;8926;49.720;6.576;2024-03-02T11:40:23;98226.03;;;14.86;53.57
17615;BME280;8926;49.720;6.576;2024-03-02T11:42:48;98219.44;;;14.82;52.79
17615;BME280;8926;49.720;6.576;2024-03-02T11:45:16;98211.31;;;14.93;53.24
17615;BME280;8926;49.720;6.576;2024-03-02T11:47:42;98210.31;;;15.38;52.44
17615;BME280;8926;49.720;6.576;2024-03-02T11:50:11;98211.84;;;15.67;50.81
17615;BME280;8926;49.720;6.576;2024-03-02T11:52:36;98204.41;;;15.96;49.92
17615;BME280;8926;49.720;6.576;2024-03-02T11:55:03;98203.22;;;15.82;49.25
17615;BME280;8926;49.720;6.576;2024-03-02T11:57:29;98197.22;;;15.46;50.21
17615;BME280;8926;49.720;6.576;2024-03-02T11:59:56;98191.22;;;15.36;50.54
17615;BME280;8926;49.720;6.576;2024-03-02T12:02:22;98189.19;;;15.22;50.22
17615;BME280;8926;49.720;6.576;2024-03-02T12:04:48;98180.50;;;15.04;50.65
17615;BME280;8926;49.720;6.576;2024-03-02T12:07:20;98176.91;;;15.05;50.84
17615;BME280;8926;49.720;6.576;2024-03-02T12:09:49;98169.69;;;15.07;51.22
17615;BME280;8926;49.720;6.576;2024-03-02T12:12:15;98171.50;;;15.32;51.24
17615;BME280;8926;49.720;6.576;2024-03-02T12:14:52;98173.38;;;15.74;49.97
17615;BME280;8926;49.720;6.576;2024-03-02T12:17:18;98164.84;;;15.88;49.56
17615;BME280;8926;49.720;6.576;2024-03-02T12:19:43;98157.53;;;16.16;48.96
17615;BME280;8926;49.720;6.576;2024-03-02T12:22:09;98163.00;;;16.31;48.26
17615;BME280;8926;49.720;6.576;2024-03-02T12:24:34;98154.41;;;16.20;48.05
17615;BME280;8926;49.720;6.576;2024-03-02T12:26:59;98161.63;;;16.02;48.41
17615;BME280;8926;49.720;6.576;2024-03-02T12:29:25;98156.50;;;16.01;48.50
17615;BME280;8926;49.720;6.576;2024-03-02T12:31:51;98163.28;;;16.03;48.68
17615;BME280;8926;49.720;6.576;2024-03-02T12:34:19;98158.13;;;15.93;48.36
17615;BME280;8926;49.720;6.576;2024-03-02T12:36:46;98169.19;;;15.97;49.37
17615;BME280;8926;49.720;6.576;2024-03-02T12:39:18;98158.59;;;15.89;48.71
17615;BME280;8926;49.720;6.576;2024-03-02T12:41:43;98165.50;;;15.82;48.91
17615;BME280;8926;49.720;6.576;2024-03-02T12:44:08;98158.28;;;15.84;49.57
17615;BME280;8926;49.720;6.576;2024-03-02T12:46:34;98152.03;;;15.93;49.18
17615;BME280;8926;49.720;6.576;2024-03-02T12:49:05;98151.84;;;15.86;48.85
17615;BME280;8926;49.720;6.576;2024-03-02T12:51:32;98154.34;;;15.96;48.37
17615;BME280;8926;49.720;6.576;2024-03-02T12:53:57;98153.31;;;15.81;48.88
17615;BME280;8926;49.720;6.576;2024-03-02T12:56:22;98137.84;;;15.78;48.93
17615;BME280;8926;49.720;6.576;2024-03-02T12:58:52;98127.22;;;16.12;48.62
17615;BME280;8926;49.720;6.576;2024-03-02T13:01:18;98127.09;;;16.46;48.65
17615;BME280;8926;49.720;6.576;2024-03-02T13:03:44;98121.00;;;16.45;48.79
17615;BME280;8926;49.720;6.576;2024-03-02T13:06:09;98130.41;;;16.40;48.07
17615;BME280;8926;49.720;6.576;2024-03-02T13:08:34;98125.56;;;16.03;48.37
17615;BME280;8926;49.720;6.576;2024-03-02T13:11:00;98124.00;;;15.76;49.09
17615;BME280;8926;49.720;6.576;2024-03-02T13:13:25;98125.94;;;15.57;49.68
17615;BME280;8926;49.720;6.576;2024-03-02T13:15:54;98126.94;;;15.39;49.67
17615;BME280;8926;49.720;6.576;2024-03-02T13:18:19;98121.81;;;15.29;50.63